Kisber — 9V2736 — position and weather

sailwx.info

Track history (hours):
 
Tides and Currents Weather Stations Pressure Air Temp Water Temp Dewpoint Dewpoint Depression Visibility Wind Speed Wind Dir Waves Ship Positions

Kisber

Last reported at 2017-Dec-14 22:00 UTC. Time now 2017-Dec-17 00:34 UTC.
Position N 36°30' W 000°24'.

Length 120 m; draft 7.1 m.

Type: Tanker. MMSI: 566473000.

Wind from 240 at 22 knots

Barometer 1020.9 mb
Air temperature 16.0 ° C
Visibility: greater than 10.8 NM
Dewpoint 14.3 ° C
Water temperature 16.0 ° C

Date/timePositionNaut miles runAvg speedWind from/ knotsBaromVisibWave heightAir tempDewpointWater temp
2017-Dec-14 22:00N 36°30' W 000°24'18115.0 240 / 221020.910.8 16.014.316.0
2017-Dec-14 10:00N 36°06' W 004°06'5515.6 250 / 171027.910.8 15.011.317.0
2017-Dec-14 06:29N 35°60' W 005°13'816.9
2017-Dec-14 06:00N 35°58' W 005°23'2016.7
2017-Dec-14 04:48N 35°54' W 005°47'  
2017-Dec-10 17:34N 49°45' W 003°36'910.9
2017-Dec-10 16:43N 49°48' W 003°23'2 8.7
2017-Dec-10 16:28N 49°49' W 003°20'3 6.8
2017-Dec-10 16:00N 49°50' W 003°15'1 2.1
2017-Dec-10 15:27N 49°51' W 003°14'2 5.1
2017-Dec-10 15:00N 49°51' W 003°17'2 4.7
2017-Dec-10 14:30N 49°52' W 003°14'2 4.3
2017-Dec-10 14:00N 49°53' W 003°11'2 4.2
2017-Dec-10 13:30N 49°54' W 003°08'2 3.6
2017-Dec-10 13:00N 49°55' W 003°06'1 2.9
2017-Dec-10 12:30N 49°55' W 003°04'1 2.6
2017-Dec-10 12:00N 49°56' W 003°02'1 2.5
2017-Dec-10 11:30N 49°57' W 003°01'1 2.1
2017-Dec-10 11:00N 49°58' W 002°59'1 1.7
2017-Dec-10 10:30N 49°58' W 002°59'1 1.6
2017-Dec-10 10:00N 49°58' W 002°57'1 1.8
2017-Dec-10 09:30N 49°59' W 002°56'1 1.8
2017-Dec-10 09:00N 49°59' W 002°55'1 2.5
2017-Dec-10 08:30N 49°60' W 002°53'2 3.8
2017-Dec-10 07:59N 50°00' W 002°50'3 7.2
2017-Dec-10 07:30N 50°01' W 002°45'611.8
2017-Dec-10 07:00N 50°03' W 002°36'5213.0
2017-Dec-10 03:02N 50°25' W 001°23'012.3
2017-Dec-10 03:00N 50°25' W 001°23'611.8
2017-Dec-10 02:30N 50°28' W 001°15'611.2
2017-Dec-10 02:00N 50°31' W 001°07'510.4
2017-Dec-10 01:30N 50°34' W 001°00'611.7
2017-Dec-10 01:00N 50°40' W 000°59'4 8.5
2017-Dec-10 00:30N 50°43' W 001°02'510.4
2017-Dec-10 00:00N 50°46' W 001°09'612.1
2017-Dec-09 23:30N 50°47' W 001°19'4 0.1
2017-Dec-08 03:26N 50°51' W 001°20'0 0.8
2017-Dec-08 03:00N 50°50' W 001°20'3 6.6
2017-Dec-08 02:31N 50°48' W 001°16'611.9
2017-Dec-08 02:01N 50°45' W 001°08'510.3
2017-Dec-08 01:31N 50°43' W 001°00'4 8.8
2017-Dec-08 01:00N 50°39' W 000°59'713.3
2017-Dec-08 00:31N 50°33' W 001°04'916.8
2017-Dec-07 23:57N 50°30' W 001°18'1916.8
2017-Dec-07 22:49N 50°25' W 001°47'816.5
2017-Dec-07 22:19N 50°27' W 001°60'1315.8
2017-Dec-07 21:30N 50°32' W 002°18'611.5
2017-Dec-07 21:00N 50°36' W 002°25'1 2.3
2017-Dec-07 20:28N 50°35' W 002°26'0 0.0
2017-Dec-07 19:58N 50°35' W 002°26'0 0.0
2017-Dec-07 19:22N 50°35' W 002°26'0 0.0
2017-Dec-07 18:55N 50°35' W 002°26'0 0.0
2017-Dec-07 18:28N 50°35' W 002°26'0 0.0
2017-Dec-07 17:52N 50°35' W 002°26'0 0.0
2017-Dec-07 17:28N 50°35' W 002°26'0 0.0
2017-Dec-07 16:55N 50°35' W 002°26'0 0.0
2017-Dec-07 16:28N 50°35' W 002°26'0 0.0
2017-Dec-07 15:55N 50°35' W 002°26'0 0.0
2017-Dec-07 15:25N 50°35' W 002°26'0 0.2
2017-Dec-07 14:48N 50°35' W 002°26'1 3.3
2017-Dec-07 14:30N 50°35' W 002°25'2 4.6
2017-Dec-07 13:59N 50°34' W 002°22'612.8
2017-Dec-07 13:30N 50°29' W 002°16'912.3
2017-Dec-07 12:48N 50°22' W 002°08'4011.7
2017-Dec-07 09:25N 49°52' W 002°49'616.2
2017-Dec-07 09:01N 49°49' W 002°58'1116.2
2017-Dec-07 08:21N 49°43' W 003°12'8015.8
2017-Dec-07 03:18N 49°01' W 004°56'514.7
2017-Dec-07 03:00N 48°59' W 005°02'714.3
2017-Dec-07 02:30N 48°56' W 005°11'714.0
2017-Dec-07 02:00N 48°52' W 005°21'713.5
2017-Dec-07 01:30N 48°49' W 005°30'613.1
2017-Dec-07 01:00N 48°45' W 005°37'713.2
2017-Dec-07 00:31N 48°39' W 005°42'1712.8
2017-Dec-06 23:10N 48°25' W 005°56'412.9
2017-Dec-06 22:54N 48°22' W 005°59'512.9
2017-Dec-06 22:30N 48°17' W 006°03'713.1
2017-Dec-06 21:55N 48°11' W 006°09'613.1
2017-Dec-06 21:29N 48°06' W 006°13'15815.0
2017-Dec-06 11:00N 45°48' W 008°06'48813.6 190 / 211033.110.8 15.013.215.0
2017-Dec-04 23:00N 37°48' W 010°06'   100 / 141035.1 5.4 16.014.318.0
Track history (hours):
 
Tides and Currents Weather Stations Pressure Air Temp Water Temp Dewpoint Dewpoint Depression Visibility Wind Speed Wind Dir Waves Ship Positions

Kisber

Last reported at 2017-Dec-14 22:00 UTC. Time now 2017-Dec-17 00:34 UTC.
Position N 36°30' W 000°24'.

Length 120 m; draft 7.1 m.

Type: Tanker. MMSI: 566473000.

Wind from 240 at 22 knots

Barometer 1020.9 mb
Air temperature 16.0 ° C
Visibility: greater than 10.8 NM
Dewpoint 14.3 ° C
Water temperature 16.0 ° C

Date/timePositionNaut miles runAvg speedWind from/ knotsBaromVisibWave heightAir tempDewpointWater temp
2017-Dec-14 22:00N 36°30' W 000°24'18115.0 240 / 221020.910.8 16.014.316.0
2017-Dec-14 10:00N 36°06' W 004°06'5515.6 250 / 171027.910.8 15.011.317.0
2017-Dec-14 06:29N 35°60' W 005°13'816.9
2017-Dec-14 06:00N 35°58' W 005°23'2016.7
2017-Dec-14 04:48N 35°54' W 005°47'  
2017-Dec-10 17:34N 49°45' W 003°36'910.9
2017-Dec-10 16:43N 49°48' W 003°23'2 8.7
2017-Dec-10 16:28N 49°49' W 003°20'3 6.8
2017-Dec-10 16:00N 49°50' W 003°15'1 2.1
2017-Dec-10 15:27N 49°51' W 003°14'2 5.1
2017-Dec-10 15:00N 49°51' W 003°17'2 4.7
2017-Dec-10 14:30N 49°52' W 003°14'2 4.3
2017-Dec-10 14:00N 49°53' W 003°11'2 4.2
2017-Dec-10 13:30N 49°54' W 003°08'2 3.6
2017-Dec-10 13:00N 49°55' W 003°06'1 2.9
2017-Dec-10 12:30N 49°55' W 003°04'1 2.6
2017-Dec-10 12:00N 49°56' W 003°02'1 2.5
2017-Dec-10 11:30N 49°57' W 003°01'1 2.1
2017-Dec-10 11:00N 49°58' W 002°59'1 1.7
2017-Dec-10 10:30N 49°58' W 002°59'1 1.6
2017-Dec-10 10:00N 49°58' W 002°57'1 1.8
2017-Dec-10 09:30N 49°59' W 002°56'1 1.8
2017-Dec-10 09:00N 49°59' W 002°55'1 2.5
2017-Dec-10 08:30N 49°60' W 002°53'2 3.8
2017-Dec-10 07:59N 50°00' W 002°50'3 7.2
2017-Dec-10 07:30N 50°01' W 002°45'611.8
2017-Dec-10 07:00N 50°03' W 002°36'5213.0
2017-Dec-10 03:02N 50°25' W 001°23'012.3
2017-Dec-10 03:00N 50°25' W 001°23'611.8
2017-Dec-10 02:30N 50°28' W 001°15'611.2
2017-Dec-10 02:00N 50°31' W 001°07'510.4
2017-Dec-10 01:30N 50°34' W 001°00'611.7
2017-Dec-10 01:00N 50°40' W 000°59'4 8.5
2017-Dec-10 00:30N 50°43' W 001°02'510.4
2017-Dec-10 00:00N 50°46' W 001°09'612.1
2017-Dec-09 23:30N 50°47' W 001°19'4 0.1
2017-Dec-08 03:26N 50°51' W 001°20'0 0.8
2017-Dec-08 03:00N 50°50' W 001°20'3 6.6
2017-Dec-08 02:31N 50°48' W 001°16'611.9
2017-Dec-08 02:01N 50°45' W 001°08'510.3
2017-Dec-08 01:31N 50°43' W 001°00'4 8.8
2017-Dec-08 01:00N 50°39' W 000°59'713.3
2017-Dec-08 00:31N 50°33' W 001°04'916.8
2017-Dec-07 23:57N 50°30' W 001°18'1916.8
2017-Dec-07 22:49N 50°25' W 001°47'816.5
2017-Dec-07 22:19N 50°27' W 001°60'1315.8
2017-Dec-07 21:30N 50°32' W 002°18'611.5
2017-Dec-07 21:00N 50°36' W 002°25'1 2.3
2017-Dec-07 20:28N 50°35' W 002°26'0 0.0
2017-Dec-07 19:58N 50°35' W 002°26'0 0.0
2017-Dec-07 19:22N 50°35' W 002°26'0 0.0
2017-Dec-07 18:55N 50°35' W 002°26'0 0.0
2017-Dec-07 18:28N 50°35' W 002°26'0 0.0
2017-Dec-07 17:52N 50°35' W 002°26'0 0.0
2017-Dec-07 17:28N 50°35' W 002°26'0 0.0
2017-Dec-07 16:55N 50°35' W 002°26'0 0.0
2017-Dec-07 16:28N 50°35' W 002°26'0 0.0
2017-Dec-07 15:55N 50°35' W 002°26'0 0.0
2017-Dec-07 15:25N 50°35' W 002°26'0 0.2
2017-Dec-07 14:48N 50°35' W 002°26'1 3.3
2017-Dec-07 14:30N 50°35' W 002°25'2 4.6
2017-Dec-07 13:59N 50°34' W 002°22'612.8
2017-Dec-07 13:30N 50°29' W 002°16'912.3
2017-Dec-07 12:48N 50°22' W 002°08'4011.7
2017-Dec-07 09:25N 49°52' W 002°49'616.2
2017-Dec-07 09:01N 49°49' W 002°58'1116.2
2017-Dec-07 08:21N 49°43' W 003°12'8015.8
2017-Dec-07 03:18N 49°01' W 004°56'514.7
2017-Dec-07 03:00N 48°59' W 005°02'714.3
2017-Dec-07 02:30N 48°56' W 005°11'714.0
2017-Dec-07 02:00N 48°52' W 005°21'713.5
2017-Dec-07 01:30N 48°49' W 005°30'613.1
2017-Dec-07 01:00N 48°45' W 005°37'713.2
2017-Dec-07 00:31N 48°39' W 005°42'1712.8
2017-Dec-06 23:10N 48°25' W 005°56'412.9
2017-Dec-06 22:54N 48°22' W 005°59'512.9
2017-Dec-06 22:30N 48°17' W 006°03'713.1
2017-Dec-06 21:55N 48°11' W 006°09'613.1
2017-Dec-06 21:29N 48°06' W 006°13'15815.0
2017-Dec-06 11:00N 45°48' W 008°06'48813.6 190 / 211033.110.8 15.013.215.0
2017-Dec-04 23:00N 37°48' W 010°06'   100 / 141035.1 5.4 16.014.318.0

Dump ship's entire track history